createdAt,value
2023-03-30T00:00:50.841Z,5.61
2023-03-30T00:02:55.263Z,5.61
2023-03-30T00:05:03.652Z,5.55
2023-03-30T00:07:06.706Z,5.56
2023-03-30T00:09:09.933Z,5.42
2023-03-30T00:11:15.975Z,5.37
2023-03-30T00:13:19.227Z,5.43
2023-03-30T00:15:24.184Z,5.48
2023-03-30T00:17:27.215Z,5.48
2023-03-30T00:19:31.615Z,5.54
2023-03-30T00:21:35.275Z,5.41
2023-03-30T00:23:38.861Z,5.38
2023-03-30T00:25:43.049Z,5.40
2023-03-30T00:27:46.977Z,5.33
2023-03-30T00:29:49.898Z,5.44
2023-03-30T00:31:53.250Z,5.35
2023-03-30T00:33:56.398Z,5.39
2023-03-30T00:36:01.431Z,5.39
2023-03-30T00:38:04.552Z,5.41
2023-03-30T00:40:10.363Z,5.37
2023-03-30T00:42:15.961Z,5.42
2023-03-30T00:44:51.782Z,5.50
2023-03-30T00:46:54.942Z,5.51
2023-03-30T00:49:04.322Z,5.46
2023-03-30T00:51:11.514Z,5.52
2023-03-30T00:53:18.156Z,5.48
2023-03-30T00:55:24.372Z,5.46
2023-03-30T00:57:28.903Z,5.46
2023-03-30T00:59:31.869Z,5.41
2023-03-30T01:01:39.493Z,5.46
2023-03-30T01:03:46.096Z,5.46
2023-03-30T01:05:50.429Z,5.35
2023-03-30T01:07:58.306Z,5.48
2023-03-30T01:10:02.605Z,5.38
2023-03-30T01:12:05.890Z,5.34
2023-03-30T01:14:11.685Z,5.33
2023-03-30T01:16:24.890Z,5.43
2023-03-30T01:18:37.083Z,5.37
2023-03-30T01:21:16.282Z,5.38
2023-03-30T01:23:47.443Z,5.36
2023-03-30T01:26:20.893Z,5.37
2023-03-30T01:28:37.062Z,5.39
2023-03-30T01:31:03.829Z,5.34
2023-03-30T01:33:34.519Z,5.37
2023-03-30T01:36:01.188Z,5.44
2023-03-30T01:38:24.943Z,5.56
2023-03-30T01:40:33.693Z,5.47
2023-03-30T01:42:40.015Z,5.50
2023-03-30T01:44:52.253Z,5.49
2023-03-30T01:47:00.014Z,5.56
2023-03-30T01:49:11.626Z,5.54
2023-03-30T01:51:20.920Z,5.55
2023-03-30T01:53:29.883Z,5.66
2023-03-30T01:55:38.944Z,5.60
2023-03-30T01:57:48.215Z,5.56
2023-03-30T01:59:56.652Z,5.57
2023-03-30T02:02:04.674Z,5.56
2023-03-30T02:04:10.689Z,5.65
2023-03-30T02:06:18.824Z,5.69
2023-03-30T02:08:25.367Z,5.63
2023-03-30T02:10:31.565Z,5.63
2023-03-30T02:12:37.672Z,5.55
2023-03-30T02:14:42.433Z,5.62
2023-03-30T02:16:47.811Z,5.57
2023-03-30T02:18:50.953Z,5.60
2023-03-30T02:20:54.253Z,5.60
2023-03-30T02:22:57.516Z,5.53
2023-03-30T02:25:03.129Z,5.50
2023-03-30T02:27:06.765Z,5.54
2023-03-30T02:29:12.915Z,5.58
2023-03-30T02:31:17.236Z,5.61
2023-03-30T02:33:28.620Z,5.64
2023-03-30T02:35:54.516Z,5.59
2023-03-30T02:38:20.865Z,5.57
2023-03-30T02:40:38.457Z,5.69
2023-03-30T02:42:56.374Z,5.68
2023-03-30T02:45:14.427Z,5.69
2023-03-30T02:47:22.649Z,5.62
2023-03-30T02:49:38.340Z,5.56
2023-03-30T02:51:47.385Z,5.51
2023-03-30T02:54:26.809Z,5.62
2023-03-30T02:56:58.498Z,5.65
2023-03-30T02:59:04.988Z,5.64
2023-03-30T03:01:16.172Z,5.74
2023-03-30T03:03:36.349Z,5.73
2023-03-30T03:05:39.946Z,5.67
2023-03-30T03:07:48.433Z,5.58
2023-03-30T03:09:52.295Z,5.61
2023-03-30T03:11:56.113Z,5.66
2023-03-30T03:14:02.050Z,5.73
2023-03-30T03:16:08.479Z,5.72
2023-03-30T03:18:13.551Z,5.67
2023-03-30T03:20:17.966Z,5.68
2023-03-30T03:22:21.263Z,5.76
2023-03-30T03:24:24.434Z,5.68
2023-03-30T03:26:39.986Z,5.64
2023-03-30T03:28:43.196Z,5.65
2023-03-30T03:30:46.772Z,5.62
2023-03-30T03:32:54.829Z,5.65
2023-03-30T03:35:01.695Z,5.59
2023-03-30T03:37:04.803Z,5.69
2023-03-30T03:39:09.406Z,5.64
2023-03-30T03:41:12.971Z,5.70
2023-03-30T03:43:17.900Z,5.77
2023-03-30T03:45:21.004Z,5.69
2023-03-30T03:47:28.413Z,5.68
2023-03-30T03:49:31.438Z,5.69
2023-03-30T03:51:36.330Z,5.63
2023-03-30T03:53:39.392Z,5.66
2023-03-30T03:55:47.134Z,5.60
2023-03-30T03:57:50.473Z,5.69
2023-03-30T03:59:54.124Z,5.68
2023-03-30T04:01:57.069Z,5.65
2023-03-30T04:04:00.029Z,5.64
2023-03-30T04:06:03.153Z,5.72
2023-03-30T04:08:11.947Z,5.61
2023-03-30T04:10:16.424Z,5.68
2023-03-30T04:12:39.576Z,5.67
2023-03-30T04:15:11.777Z,5.68
2023-03-30T04:17:38.564Z,5.78
2023-03-30T04:19:59.843Z,5.71
2023-03-30T04:22:24.528Z,5.68
2023-03-30T04:24:51.974Z,5.83
2023-03-30T04:27:29.135Z,5.92
2023-03-30T04:29:58.155Z,5.82
2023-03-30T04:32:22.452Z,5.77
2023-03-30T04:34:45.039Z,5.75
2023-03-30T04:37:07.499Z,5.72
2023-03-30T04:39:33.419Z,5.75
2023-03-30T04:41:56.397Z,5.91
2023-03-30T04:44:11.477Z,5.79
2023-03-30T04:46:33.521Z,5.84
2023-03-30T04:49:05.929Z,5.82
2023-03-30T04:51:43.027Z,5.88
2023-03-30T04:54:09.480Z,5.92
2023-03-30T04:56:32.666Z,5.86
2023-03-30T04:58:48.741Z,5.93
2023-03-30T05:01:04.128Z,5.90
2023-03-30T05:03:30.938Z,5.84
2023-03-30T05:05:50.940Z,5.86
2023-03-30T05:08:23.038Z,5.86
2023-03-30T05:11:01.454Z,5.88
2023-03-30T05:13:24.301Z,5.95
2023-03-30T05:15:34.023Z,6.05
2023-03-30T05:17:55.929Z,6.11
2023-03-30T05:20:17.278Z,6.09
2023-03-30T05:22:40.379Z,6.21
2023-03-30T05:25:03.744Z,6.11
2023-03-30T05:27:23.559Z,6.15
2023-03-30T05:29:32.342Z,6.14
2023-03-30T05:31:55.450Z,6.16
2023-03-30T05:34:20.212Z,6.18
2023-03-30T05:36:39.139Z,6.24
2023-03-30T05:38:49.898Z,6.33
2023-03-30T05:41:11.553Z,6.40
2023-03-30T05:43:47.926Z,6.47
2023-03-30T05:46:23.237Z,6.66
2023-03-30T05:48:47.666Z,6.74
2023-03-30T05:51:04.304Z,6.80
2023-03-30T05:53:21.915Z,6.89
2023-03-30T05:55:53.386Z,6.85
2023-03-30T05:58:22.899Z,6.90
2023-03-30T06:00:37.593Z,6.90
2023-03-30T06:02:53.656Z,6.87
2023-03-30T06:05:01.981Z,6.87
2023-03-30T06:07:05.247Z,6.86
2023-03-30T06:09:08.276Z,6.86
2023-03-30T06:11:14.126Z,6.92
2023-03-30T06:13:30.515Z,6.92
2023-03-30T06:15:34.027Z,6.97
2023-03-30T06:17:43.414Z,7.01
2023-03-30T06:19:46.727Z,7.12
2023-03-30T06:21:51.135Z,7.10
2023-03-30T06:24:12.939Z,7.18
2023-03-30T06:26:16.430Z,7.17
2023-03-30T06:28:20.288Z,7.23
2023-03-30T06:30:23.675Z,7.24
2023-03-30T06:32:29.781Z,7.30
2023-03-30T06:34:51.235Z,7.30
2023-03-30T06:36:57.686Z,7.37
2023-03-30T06:39:05.960Z,7.36
2023-03-30T06:41:12.924Z,7.35
2023-03-30T06:43:22.945Z,7.51
2023-03-30T06:45:35.288Z,7.67
2023-03-30T06:47:39.725Z,7.87
2023-03-30T06:49:43.276Z,8.09
2023-03-30T06:51:51.908Z,8.75
2023-03-30T06:53:56.818Z,9.09
2023-03-30T06:56:00.278Z,9.26
2023-03-30T06:58:05.259Z,9.67
2023-03-30T07:00:15.656Z,9.84
2023-03-30T07:02:37.378Z,10.09
2023-03-30T07:04:50.645Z,10.25
2023-03-30T07:07:04.737Z,10.21
2023-03-30T07:09:09.166Z,10.42
2023-03-30T07:11:12.366Z,10.67
2023-03-30T07:13:17.257Z,10.44
2023-03-30T07:15:23.003Z,10.96
2023-03-30T07:17:27.466Z,11.85
2023-03-30T07:19:30.857Z,11.28
2023-03-30T07:21:34.109Z,11.93
2023-03-30T07:23:37.307Z,12.42
2023-03-30T07:25:42.341Z,11.71
2023-03-30T07:27:51.965Z,11.74
2023-03-30T07:29:55.386Z,11.42
2023-03-30T07:31:58.624Z,11.72
2023-03-30T07:34:03.371Z,11.78
2023-03-30T07:36:11.638Z,11.24
2023-03-30T07:38:15.058Z,10.92
2023-03-30T07:40:23.149Z,10.96
2023-03-30T07:42:27.715Z,10.80
2023-03-30T07:44:31.192Z,10.78
2023-03-30T07:46:38.390Z,10.93
2023-03-30T07:48:42.405Z,10.92
2023-03-30T07:50:45.700Z,10.81
2023-03-30T07:52:50.919Z,10.53
2023-03-30T07:54:54.990Z,10.82
2023-03-30T07:57:04.388Z,10.88
2023-03-30T07:59:10.352Z,10.89
2023-03-30T08:01:14.218Z,10.91
2023-03-30T08:03:48.603Z,10.61
2023-03-30T08:05:54.661Z,10.49
2023-03-30T08:07:59.047Z,10.46
2023-03-30T08:10:09.083Z,10.37
2023-03-30T08:12:13.242Z,10.49
2023-03-30T08:14:17.854Z,10.44
2023-03-30T08:16:20.914Z,10.53
2023-03-30T08:18:24.286Z,10.47
2023-03-30T08:20:27.777Z,10.54
2023-03-30T08:22:30.695Z,10.57
2023-03-30T08:24:33.862Z,10.69
2023-03-30T08:26:37.497Z,10.71
2023-03-30T08:28:40.463Z,10.88
2023-03-30T08:30:44.855Z,10.71
2023-03-30T08:32:48.433Z,10.87
2023-03-30T08:34:51.935Z,11.08
2023-03-30T08:36:55.162Z,11.37
2023-03-30T08:38:58.315Z,11.75
2023-03-30T08:41:01.736Z,12.15
2023-03-30T08:43:22.814Z,12.57
2023-03-30T08:45:26.443Z,12.32
2023-03-30T08:47:34.590Z,12.92
2023-03-30T08:49:43.080Z,13.19
2023-03-30T08:51:48.089Z,13.44
2023-03-30T08:53:55.897Z,13.14
2023-03-30T08:56:05.466Z,13.02
2023-03-30T08:58:19.624Z,12.57
2023-03-30T09:00:32.549Z,12.61
2023-03-30T09:02:43.326Z,12.72
2023-03-30T09:04:58.693Z,12.94
2023-03-30T09:07:05.655Z,12.53
2023-03-30T09:09:12.226Z,12.68
2023-03-30T09:11:21.916Z,12.66
2023-03-30T09:13:28.658Z,12.84
2023-03-30T09:15:37.187Z,12.92
2023-03-30T09:17:44.477Z,13.09
2023-03-30T09:19:53.109Z,12.99
2023-03-30T09:21:57.988Z,13.08
2023-03-30T09:24:06.675Z,13.77
2023-03-30T09:26:19.535Z,13.79
2023-03-30T09:28:30.374Z,13.84
2023-03-30T09:30:38.216Z,13.62
2023-03-30T09:32:47.561Z,13.67
2023-03-30T09:34:59.368Z,14.63
2023-03-30T09:37:06.538Z,13.93
2023-03-30T09:39:11.116Z,14.02
2023-03-30T09:41:39.830Z,12.85
2023-03-30T09:43:46.519Z,13.14
2023-03-30T09:45:49.514Z,13.19
2023-03-30T09:47:54.663Z,13.32
2023-03-30T09:49:59.219Z,13.38
2023-03-30T09:52:04.937Z,13.87
2023-03-30T09:54:07.454Z,13.96
2023-03-30T09:56:17.384Z,14.11
2023-03-30T09:58:21.664Z,14.04
2023-03-30T10:00:28.145Z,14.51
2023-03-30T10:02:33.032Z,14.44
2023-03-30T10:04:58.614Z,14.20
2023-03-30T10:07:12.845Z,14.49
2023-03-30T10:09:24.168Z,14.19
2023-03-30T10:11:37.220Z,14.32
2023-03-30T10:13:43.839Z,14.93
2023-03-30T10:15:53.139Z,14.69
2023-03-30T10:17:56.840Z,15.02
2023-03-30T10:20:23.477Z,15.16
2023-03-30T10:22:26.168Z,15.12
2023-03-30T10:24:31.898Z,15.04
2023-03-30T10:26:38.028Z,14.77
2023-03-30T10:28:41.486Z,15.37
2023-03-30T10:30:51.783Z,15.64
2023-03-30T10:32:58.098Z,15.77
2023-03-30T10:35:04.791Z,15.98
2023-03-30T10:37:12.783Z,15.49
2023-03-30T10:39:25.045Z,15.26
2023-03-30T10:41:29.983Z,15.17
2023-03-30T10:43:33.935Z,15.28
2023-03-30T10:45:41.986Z,14.96
2023-03-30T10:48:00.278Z,15.13
2023-03-30T10:50:12.966Z,15.55
2023-03-30T10:52:29.248Z,15.63
2023-03-30T10:54:34.286Z,15.16
2023-03-30T10:56:42.679Z,15.12
2023-03-30T10:59:03.336Z,14.67
2023-03-30T11:01:13.601Z,14.46
2023-03-30T11:03:22.489Z,14.23
2023-03-30T11:05:32.661Z,14.16
2023-03-30T11:07:43.525Z,14.10
2023-03-30T11:09:52.793Z,14.19
2023-03-30T11:11:59.988Z,14.22
2023-03-30T11:14:07.963Z,14.57
2023-03-30T11:16:16.814Z,14.42
2023-03-30T11:18:24.267Z,14.48
2023-03-30T11:20:31.075Z,14.64
2023-03-30T11:22:41.965Z,14.69
2023-03-30T11:24:49.536Z,14.75
2023-03-30T11:26:59.707Z,14.67
2023-03-30T11:29:12.796Z,14.92
2023-03-30T11:31:27.591Z,14.84
2023-03-30T11:33:37.027Z,15.06
2023-03-30T11:35:43.197Z,15.25
2023-03-30T11:37:56.066Z,15.46
2023-03-30T11:40:09.028Z,15.68
2023-03-30T11:42:19.223Z,15.63
2023-03-30T11:44:22.795Z,15.61
2023-03-30T11:46:29.313Z,15.62
2023-03-30T11:49:00.644Z,15.48
2023-03-30T11:51:19.312Z,15.67
2023-03-30T11:53:31.106Z,15.62
2023-03-30T11:55:56.667Z,16.08
2023-03-30T11:58:15.038Z,15.92
2023-03-30T12:00:32.877Z,15.97
2023-03-30T12:02:45.723Z,15.93
2023-03-30T12:04:53.426Z,15.68
2023-03-30T12:06:59.513Z,15.01
2023-03-30T12:09:23.677Z,14.69
2023-03-30T12:11:35.556Z,14.67
2023-03-30T12:13:50.282Z,14.44
2023-03-30T12:16:00.217Z,14.34
2023-03-30T12:18:12.197Z,14.40
2023-03-30T12:20:28.368Z,14.42
2023-03-30T12:22:35.281Z,14.44
2023-03-30T12:24:49.483Z,14.47
2023-03-30T12:27:04.508Z,14.33
2023-03-30T12:31:17.630Z,14.25
2023-03-30T12:33:27.886Z,14.06
2023-03-30T12:35:53.088Z,13.97
2023-03-30T12:37:59.348Z,13.94
2023-03-30T12:40:09.746Z,13.79
2023-03-30T12:42:35.000Z,13.73
2023-03-30T12:44:48.429Z,13.63
2023-03-30T12:47:07.177Z,13.52
2023-03-30T12:49:21.838Z,13.40
2023-03-30T12:51:43.169Z,13.37
2023-03-30T12:54:15.029Z,13.31
2023-03-30T12:56:29.351Z,13.34
2023-03-30T12:59:04.370Z,13.23
2023-03-30T13:01:16.858Z,13.21
2023-03-30T13:03:37.286Z,13.21
2023-03-30T13:05:43.178Z,13.21
2023-03-30T13:07:46.524Z,13.23
2023-03-30T13:09:56.081Z,13.23
2023-03-30T13:12:30.475Z,13.24
2023-03-30T13:14:46.457Z,13.14
2023-03-30T13:17:15.111Z,13.16
2023-03-30T13:19:25.828Z,13.17
2023-03-30T13:21:29.376Z,13.21
2023-03-30T13:23:36.367Z,13.23
2023-03-30T13:25:44.529Z,13.24
2023-03-30T13:27:51.525Z,13.19
2023-03-30T13:29:56.999Z,13.19
2023-03-30T13:32:07.947Z,13.09
2023-03-30T13:34:22.180Z,13.05
2023-03-30T13:36:30.644Z,13.05
2023-03-30T13:38:53.184Z,13.02
2023-03-30T13:41:05.435Z,12.99
2023-03-30T13:43:21.201Z,13.00
2023-03-30T13:45:34.823Z,13.00
2023-03-30T13:48:00.745Z,13.00
2023-03-30T13:50:08.084Z,13.04
2023-03-30T13:52:13.621Z,13.06
2023-03-30T13:54:19.856Z,12.94
2023-03-30T13:56:23.133Z,12.89
2023-03-30T13:58:33.163Z,12.92
2023-03-30T14:00:45.221Z,12.90
2023-03-30T14:02:49.741Z,12.81
2023-03-30T14:04:52.632Z,12.63
2023-03-30T14:06:58.769Z,12.57
2023-03-30T14:09:11.911Z,12.48
2023-03-30T14:11:18.252Z,12.45
2023-03-30T14:13:23.205Z,12.41
2023-03-30T14:15:34.257Z,12.33
2023-03-30T14:17:37.492Z,12.40
2023-03-30T14:19:46.265Z,12.07
2023-03-30T14:21:49.637Z,11.94
2023-03-30T14:23:54.676Z,11.94
2023-03-30T14:25:59.665Z,11.95
2023-03-30T14:28:08.036Z,11.73
2023-03-30T14:30:19.456Z,11.69
2023-03-30T14:32:25.433Z,11.50
2023-03-30T14:34:29.636Z,11.51
2023-03-30T14:36:32.645Z,11.53
2023-03-30T14:38:39.668Z,11.42
2023-03-30T14:40:43.421Z,11.34
2023-03-30T14:42:47.466Z,11.47
2023-03-30T14:44:53.086Z,11.29
2023-03-30T14:46:56.335Z,11.16
2023-03-30T14:49:01.229Z,11.26
2023-03-30T14:51:10.355Z,11.03
2023-03-30T14:53:13.575Z,11.11
2023-03-30T14:55:21.687Z,11.02
2023-03-30T14:57:26.810Z,10.86
2023-03-30T14:59:32.829Z,10.92
2023-03-30T15:01:36.301Z,10.66
2023-03-30T15:03:40.050Z,10.57
2023-03-30T15:05:46.669Z,10.48
2023-03-30T15:07:50.872Z,10.63
2023-03-30T15:09:56.217Z,10.41
2023-03-30T15:12:01.794Z,10.52
2023-03-30T15:14:09.196Z,10.55
2023-03-30T15:16:18.090Z,10.50
2023-03-30T15:18:24.515Z,10.24
2023-03-30T15:20:30.194Z,10.37
2023-03-30T15:22:37.199Z,10.24
2023-03-30T15:24:41.267Z,10.24
2023-03-30T15:26:47.656Z,10.30
2023-03-30T15:28:54.376Z,10.09
2023-03-30T15:30:59.724Z,10.20
2023-03-30T15:33:03.701Z,10.08
2023-03-30T15:35:16.362Z,10.18
2023-03-30T15:37:23.239Z,10.04
2023-03-30T15:39:34.296Z,9.93
2023-03-30T15:41:47.869Z,10.06
2023-03-30T15:43:59.389Z,9.91
2023-03-30T15:46:05.625Z,9.84
2023-03-30T15:48:12.131Z,10.03
2023-03-30T15:50:15.692Z,9.98
2023-03-30T15:52:22.510Z,9.90
2023-03-30T15:54:32.934Z,9.92
2023-03-30T15:56:39.709Z,9.92
2023-03-30T15:58:43.303Z,9.77
2023-03-30T16:00:46.925Z,9.88
2023-03-30T16:02:57.928Z,9.98
2023-03-30T16:05:02.204Z,9.95
2023-03-30T16:07:16.085Z,9.85
2023-03-30T16:09:19.806Z,9.87
2023-03-30T16:11:24.624Z,9.91
2023-03-30T16:13:27.676Z,9.99
2023-03-30T16:15:33.237Z,9.78
2023-03-30T16:17:36.482Z,9.82
2023-03-30T16:19:39.595Z,9.81
2023-03-30T16:21:45.139Z,9.76
2023-03-30T16:23:48.223Z,9.73
2023-03-30T16:25:51.072Z,9.62
2023-03-30T16:27:55.465Z,9.65
2023-03-30T16:29:58.407Z,9.59
2023-03-30T16:32:01.592Z,9.53
2023-03-30T16:34:04.611Z,9.40
2023-03-30T16:36:08.214Z,9.31
2023-03-30T16:38:15.070Z,9.42
2023-03-30T16:40:28.534Z,9.31
2023-03-30T16:42:31.419Z,9.29
2023-03-30T16:44:36.682Z,9.33
2023-03-30T16:46:41.362Z,9.20
2023-03-30T16:48:46.348Z,9.18
2023-03-30T16:50:51.973Z,9.06
2023-03-30T16:52:54.783Z,9.04
2023-03-30T16:54:57.819Z,9.16
2023-03-30T16:57:00.819Z,9.04
2023-03-30T16:59:04.045Z,9.03
2023-03-30T17:01:13.479Z,8.98
2023-03-30T17:03:17.760Z,8.99
2023-03-30T17:05:20.891Z,9.12
2023-03-30T17:07:23.912Z,9.03
2023-03-30T17:09:27.559Z,8.98
2023-03-30T17:11:30.605Z,9.00
2023-03-30T17:13:34.076Z,8.98
2023-03-30T17:15:39.269Z,8.94
2023-03-30T17:17:43.829Z,8.95
2023-03-30T17:19:46.776Z,8.91
2023-03-30T17:21:49.694Z,8.95
2023-03-30T17:23:52.835Z,9.00
2023-03-30T17:25:57.512Z,8.98
2023-03-30T17:28:01.335Z,9.05
2023-03-30T17:30:05.647Z,9.03
2023-03-30T17:32:12.576Z,8.91
2023-03-30T17:34:16.873Z,8.95
2023-03-30T17:36:21.840Z,8.94
2023-03-30T17:38:25.173Z,9.01
2023-03-30T17:40:31.119Z,9.00
2023-03-30T17:42:33.906Z,9.01
2023-03-30T17:44:37.314Z,9.04
2023-03-30T17:46:41.097Z,9.12
2023-03-30T17:48:44.071Z,8.99
2023-03-30T17:50:50.126Z,9.04
2023-03-30T17:52:54.473Z,9.02
2023-03-30T17:54:57.605Z,8.96
2023-03-30T17:57:00.763Z,9.12
2023-03-30T17:59:03.634Z,9.04
2023-03-30T18:01:09.597Z,9.02
2023-03-30T18:03:12.807Z,9.05
2023-03-30T18:05:16.700Z,9.05
2023-03-30T18:07:20.965Z,9.12
2023-03-30T18:09:24.002Z,9.17
2023-03-30T18:11:27.325Z,9.07
2023-03-30T18:13:31.045Z,9.02
2023-03-30T18:15:34.296Z,9.07
2023-03-30T18:17:37.308Z,9.08
2023-03-30T18:19:40.197Z,9.11
2023-03-30T18:21:43.293Z,9.10
2023-03-30T18:23:47.607Z,9.06
2023-03-30T18:25:51.130Z,9.14
2023-03-30T18:27:55.656Z,9.19
2023-03-30T18:29:58.918Z,9.16
2023-03-30T18:32:01.948Z,9.12
2023-03-30T18:34:04.914Z,9.15
2023-03-30T18:36:13.226Z,9.11
2023-03-30T18:38:18.536Z,9.09
2023-03-30T18:40:26.229Z,9.07
2023-03-30T18:42:29.323Z,9.10
2023-03-30T18:44:32.200Z,9.14
2023-03-30T18:46:36.003Z,9.12
2023-03-30T18:48:38.925Z,9.07
2023-03-30T18:50:43.913Z,9.02
2023-03-30T18:52:47.083Z,9.16
2023-03-30T18:54:50.058Z,9.09
2023-03-30T18:56:54.414Z,9.16
2023-03-30T18:58:57.702Z,9.02
2023-03-30T19:01:01.305Z,9.08
2023-03-30T19:03:05.043Z,9.07
2023-03-30T19:05:08.601Z,9.06
2023-03-30T19:07:12.283Z,9.02
2023-03-30T19:09:15.194Z,9.04
2023-03-30T19:11:22.354Z,9.05
2023-03-30T19:13:27.494Z,9.03
2023-03-30T19:15:33.347Z,9.09
2023-03-30T19:17:36.289Z,9.14
2023-03-30T19:19:39.309Z,9.03
2023-03-30T19:21:43.630Z,9.00
2023-03-30T19:23:46.694Z,8.98
2023-03-30T19:25:49.676Z,9.03
2023-03-30T19:28:03.124Z,8.89
2023-03-30T19:30:09.211Z,8.91
2023-03-30T19:32:12.204Z,8.83
2023-03-30T19:34:15.034Z,8.81
2023-03-30T19:36:17.967Z,8.78
2023-03-30T19:38:21.265Z,8.78
2023-03-30T19:40:24.405Z,8.82
2023-03-30T19:42:29.037Z,8.76
2023-03-30T19:44:32.191Z,8.80
2023-03-30T19:46:38.184Z,8.80
2023-03-30T19:48:41.106Z,8.79
2023-03-30T19:50:44.136Z,8.77
2023-03-30T19:52:48.948Z,8.75
2023-03-30T19:54:52.341Z,8.78
2023-03-30T19:56:55.316Z,8.73
2023-03-30T19:58:59.100Z,8.76
2023-03-30T20:01:04.675Z,8.78
2023-03-30T20:03:12.802Z,8.68
2023-03-30T20:05:16.874Z,8.72
2023-03-30T20:07:19.757Z,8.76
2023-03-30T20:09:22.919Z,8.76
2023-03-30T20:11:26.300Z,8.72
2023-03-30T20:13:29.371Z,8.76
2023-03-30T20:15:32.890Z,8.80
2023-03-30T20:17:36.785Z,8.77
2023-03-30T20:19:41.142Z,8.88
2023-03-30T20:21:44.126Z,8.86
2023-03-30T20:23:47.581Z,8.87
2023-03-30T20:25:52.875Z,8.82
2023-03-30T20:27:55.865Z,8.77
2023-03-30T20:29:58.766Z,8.79
2023-03-30T20:32:01.731Z,8.81
2023-03-30T20:34:04.786Z,8.81
2023-03-30T20:36:09.782Z,8.79
2023-03-30T20:38:12.785Z,8.75
2023-03-30T20:40:15.658Z,8.77
2023-03-30T20:42:26.455Z,8.73
2023-03-30T20:44:32.728Z,8.78
2023-03-30T20:46:38.181Z,8.77
2023-03-30T20:48:41.739Z,8.80
2023-03-30T20:50:44.688Z,8.84
2023-03-30T20:52:49.380Z,8.83
2023-03-30T20:54:53.068Z,8.81
2023-03-30T20:56:56.063Z,8.85
2023-03-30T20:59:00.047Z,8.81
2023-03-30T21:01:12.589Z,8.83
2023-03-30T21:03:15.651Z,8.90
2023-03-30T21:05:18.669Z,8.90
2023-03-30T21:07:24.906Z,8.92
2023-03-30T21:09:29.614Z,8.97
2023-03-30T21:11:35.535Z,9.02
2023-03-30T21:13:38.418Z,9.06
2023-03-30T21:15:41.513Z,9.04
2023-03-30T21:17:44.386Z,9.04
2023-03-30T21:19:47.370Z,9.08
2023-03-30T21:21:50.231Z,9.13
2023-03-30T21:23:53.203Z,9.11
2023-03-30T21:25:59.490Z,9.17
2023-03-30T21:28:02.461Z,9.18
2023-03-30T21:30:06.241Z,9.20
2023-03-30T21:32:09.193Z,9.16
2023-03-30T21:34:12.931Z,9.14
2023-03-30T21:36:15.897Z,9.10
2023-03-30T21:38:20.000Z,9.15
2023-03-30T21:40:23.047Z,9.07
2023-03-30T21:42:27.362Z,9.08
2023-03-30T21:44:33.698Z,9.02
2023-03-30T21:46:36.806Z,9.08
2023-03-30T21:48:41.620Z,9.14
2023-03-30T21:50:44.627Z,9.09
2023-03-30T21:52:48.642Z,9.08
2023-03-30T21:54:51.660Z,9.06
2023-03-30T21:56:54.723Z,9.05
2023-03-30T21:58:59.615Z,9.09
2023-03-30T22:01:11.729Z,9.05
2023-03-30T22:03:15.798Z,9.00
2023-03-30T22:05:19.250Z,9.03
2023-03-30T22:07:22.153Z,8.99
2023-03-30T22:09:25.091Z,9.03
2023-03-30T22:11:28.535Z,8.99
2023-03-30T22:13:32.166Z,8.96
2023-03-30T22:15:36.703Z,8.99
2023-03-30T22:17:42.716Z,8.97
2023-03-30T22:19:45.517Z,8.93
2023-03-30T22:21:48.337Z,8.90
2023-03-30T22:23:51.526Z,8.90
2023-03-30T22:25:54.793Z,8.93
2023-03-30T22:27:58.234Z,8.92
2023-03-30T22:30:01.833Z,8.92
2023-03-30T22:32:06.948Z,8.88
2023-03-30T22:34:09.981Z,8.83
2023-03-30T22:36:17.680Z,8.75
2023-03-30T22:38:21.144Z,8.77
2023-03-30T22:40:24.018Z,8.76
2023-03-30T22:42:27.428Z,8.75
2023-03-30T22:44:30.645Z,8.72
2023-03-30T22:46:33.622Z,8.65
2023-03-30T22:48:41.783Z,8.65
2023-03-30T22:50:44.714Z,8.68
2023-03-30T22:52:47.553Z,8.61
2023-03-30T22:54:50.608Z,8.64
2023-03-30T22:56:53.750Z,8.66
2023-03-30T22:58:57.045Z,8.67
2023-03-30T23:01:01.359Z,8.66
2023-03-30T23:03:04.584Z,8.64
2023-03-30T23:05:10.295Z,8.66
2023-03-30T23:07:14.484Z,8.67
2023-03-30T23:09:17.480Z,8.65
2023-03-30T23:11:23.433Z,8.66
2023-03-30T23:13:26.773Z,8.60
2023-03-30T23:15:30.132Z,8.57
2023-03-30T23:17:33.039Z,8.52
2023-03-30T23:19:36.913Z,8.44
2023-03-30T23:21:41.453Z,8.39
2023-03-30T23:23:44.511Z,8.36
2023-03-30T23:25:52.437Z,8.27
2023-03-30T23:27:55.390Z,8.21
2023-03-30T23:29:58.382Z,8.13
2023-03-30T23:32:01.771Z,8.11
2023-03-30T23:34:04.754Z,8.07
2023-03-30T23:36:08.691Z,7.99
2023-03-30T23:38:13.454Z,7.96
2023-03-30T23:40:16.715Z,7.96
2023-03-30T23:42:19.793Z,7.95
2023-03-30T23:44:23.415Z,7.90
2023-03-30T23:46:26.268Z,7.78
2023-03-30T23:48:29.489Z,7.78
2023-03-30T23:50:33.340Z,7.72
2023-03-30T23:52:36.712Z,7.63
2023-03-30T23:54:41.153Z,7.59
2023-03-30T23:56:44.866Z,7.37
2023-03-30T23:58:47.759Z,7.28
